Time;durP1;ratioP1;P1;durP2;ratioP2;P2;SDS_P1;SDS_P2;PMS_P1;PMS_P2;Temp;Humidity;BMP_temperature;BMP_pressure;BME280_temperature;BME280_humidity;BME280_pressure;Samples;Min_cycle;Max_cycle;Signal;HPM_P1;HPM_P2
2023/01/23 00:01:36;;;;;;;0.70;0.70;;;;;;;-1.42;100.00;97986.50;88174;219;64004;-65
2023/01/23 00:03:15;;;;;;;0.67;0.67;;;;;;;-1.39;100.00;97996.75;87938;202;151000;-64
2023/01/23 00:03:47;;;;;;;0.70;0.70;;;;;;;-1.36;100.00;97996.37;29394;260;64009;-66
2023/01/23 00:04:21;;;;;;;0.60;0.60;;;;;;;-1.35;100.00;97997.19;29373;248;63005;-57
2023/01/23 00:04:52;;;;;;;0.60;0.60;;;;;;;-1.35;100.00;97991.88;29371;221;64013;-63
2023/01/23 00:05:24;;;;;;;0.70;0.70;;;;;;;-1.37;100.00;97988.59;29373;251;63000;-57
2023/01/23 00:06:01;;;;;;;0.60;0.60;;;;;;;-1.39;100.00;97983.44;29373;206;63009;-65
2023/01/23 00:06:33;;;;;;;0.70;0.70;;;;;;;-1.39;100.00;97985.31;29373;205;63004;-65
2023/01/23 00:07:06;;;;;;;0.70;0.70;;;;;;;-1.39;100.00;97990.63;29373;265;63009;-65
2023/01/23 00:07:37;;;;;;;0.70;0.70;;;;;;;-1.41;100.00;97982.84;29373;232;63004;-65
2023/01/23 00:08:10;;;;;;;0.65;0.65;;;;;;;-1.40;100.00;97989.00;29373;212;63009;-56
2023/01/23 00:08:43;;;;;;;0.70;0.70;;;;;;;-1.41;100.00;97988.16;29373;204;63004;-65
2023/01/23 00:09:15;;;;;;;0.70;0.70;;;;;;;-1.39;100.00;97988.78;29373;218;63008;-55
2023/01/23 00:09:47;;;;;;;0.65;0.65;;;;;;;-1.37;100.00;97988.59;29373;200;63005;-65
2023/01/23 00:10:19;;;;;;;0.60;0.60;;;;;;;-1.38;100.00;97985.09;29371;197;64014;-65
2023/01/23 00:10:51;;;;;;;0.60;0.60;;;;;;;-1.37;100.00;97989.41;29373;250;63005;-65
2023/01/23 00:11:25;;;;;;;0.60;0.60;;;;;;;-1.37;100.00;97984.09;29373;208;63009;-65
2023/01/23 00:11:56;;;;;;;0.70;0.70;;;;;;;-1.37;100.00;97981.41;29373;328;63005;-65
2023/01/23 00:12:28;;;;;;;0.70;0.70;;;;;;;-1.37;100.00;97992.06;29371;232;64013;-56
2023/01/23 00:12:59;;;;;;;0.70;0.70;;;;;;;-1.37;100.00;97989.41;29373;249;63005;-66
2023/01/23 00:13:30;;;;;;;0.70;0.70;;;;;;;-1.37;100.00;97983.25;29373;223;63009;-65
2023/01/23 00:14:02;;;;;;;0.70;0.70;;;;;;;-1.38;100.00;97985.09;29373;204;63004;-65
2023/01/23 00:14:34;;;;;;;0.70;0.70;;;;;;;-1.39;100.00;97985.31;29373;210;63013;-64
2023/01/23 00:15:07;;;;;;;0.70;0.70;;;;;;;-1.41;100.00;97982.84;29373;228;63004;-63
2023/01/23 00:15:39;;;;;;;0.70;0.70;;;;;;;-1.42;100.00;97986.50;29373;215;63009;-64
2023/01/23 00:16:15;;;;;;;0.70;0.70;;;;;;;-1.43;100.00;97984.03;29373;223;63004;-63
2023/01/23 00:16:47;;;;;;;0.70;0.70;;;;;;;-1.43;100.00;97984.88;29373;211;63008;-64
2023/01/23 00:18:27;;;;;;;0.68;0.68;;;;;;;143.34;100.00;122049.12;88174;198;64004;-64
2023/01/23 00:19:00;;;;;;;0.70;0.70;;;;;;;143.35;100.00;122040.03;29394;212;64009;-65
2023/01/23 00:19:31;;;;;;;0.60;0.60;;;;;;;143.34;100.00;122052.44;29373;239;63005;-56
2023/01/23 00:20:03;;;;;;;0.70;0.70;;;;;;;143.35;100.00;122057.38;29373;212;63009;-64
2023/01/23 00:20:39;;;;;;;0.60;0.60;;;;;;;143.37;100.00;122059.03;29373;216;63005;-65
2023/01/23 00:21:13;;;;;;;0.60;0.60;;;;;;;143.37;100.00;122042.50;29373;210;63009;-64
2023/01/23 00:21:45;;;;;;;0.70;0.70;;;;;;;143.38;100.00;122057.38;29373;230;63004;-56
2023/01/23 00:22:16;;;;;;;0.70;0.70;;;;;;;143.37;100.00;122049.94;29371;227;64013;-56
2023/01/23 00:22:49;;;;;;;0.60;0.60;;;;;;;143.38;100.00;122047.47;29373;220;63004;-55
2023/01/23 00:23:20;;;;;;;0.70;0.70;;;;;;;143.38;100.00;122057.38;29373;238;63009;-55
2023/01/23 00:23:55;;;;;;;0.70;0.70;;;;;;;143.37;100.00;122049.12;29373;214;63004;-56
2023/01/23 00:24:27;;;;;;;0.70;0.70;;;;;;;143.34;100.00;122055.75;29373;284;63008;-55
2023/01/23 00:24:58;;;;;;;0.70;0.70;;;;;;;143.32;100.00;122049.16;29373;296;63005;-64
2023/01/23 00:25:31;;;;;;;0.70;0.70;;;;;;;143.32;100.00;122048.31;29373;241;63019;-65
2023/01/23 00:26:09;;;;;;;0.60;0.60;;;;;;;143.31;100.00;122056.59;29373;200;63005;-64
2023/01/23 00:26:41;;;;;;;0.60;0.60;;;;;;;143.31;100.00;122050.81;29373;198;63009;-55
2023/01/23 00:27:13;;;;;;;2.10;2.05;;;;;;;143.31;100.00;122060.72;29373;224;63005;-64
2023/01/23 00:27:44;;;;;;;0.65;0.65;;;;;;;143.33;100.00;122057.41;29371;232;64013;-56
2023/01/23 00:28:15;;;;;;;0.65;0.65;;;;;;;143.33;100.00;122067.31;29371;234;64009;-66
2023/01/23 00:28:48;;;;;;;0.62;0.62;;;;;;;143.33;100.00;122064.00;29373;234;63009;-64
2023/01/23 00:29:19;;;;;;;0.70;0.70;;;;;;;143.33;100.00;122057.41;29373;235;63004;-63
2023/01/23 00:29:53;;;;;;;0.60;0.60;;;;;;;143.32;100.00;122055.75;29371;210;64004;-65
2023/01/23 00:30:25;;;;;;;0.70;0.70;;;;;;;143.30;100.00;122059.09;29373;279;63004;-64
2023/01/23 00:31:08;;;;;;;0.60;0.60;;;;;;;143.30;100.00;122052.47;29373;203;63009;-64
2023/01/23 00:31:40;;;;;;;0.60;0.60;;;;;;;143.30;100.00;122059.09;29373;202;63004;-56
2023/01/23 00:32:12;;;;;;;0.70;0.70;;;;;;;143.31;100.00;122060.72;29373;203;63009;-64
2023/01/23 00:33:03;;;;;;;;;;;;;;;143.32;100.00;122055.75;29974;986;28000;-56
2023/01/23 00:33:38;;;;;;;0.70;0.70;;;;;;;143.33;100.00;122057.41;29422;293;63005;-65
2023/01/23 00:34:13;;;;;;;0.60;0.60;;;;;;;143.33;100.00;122057.41;29395;203;63009;-64
2023/01/23 00:34:46;;;;;;;0.70;0.70;;;;;;;143.33;100.00;122054.09;29373;234;63005;-64
2023/01/23 00:35:18;;;;;;;0.60;0.60;;;;;;;143.33;100.00;122060.72;29371;222;64013;-55
2023/01/23 00:35:52;;;;;;;0.60;0.60;;;;;;;143.34;100.00;122058.22;29373;217;63008;-64
2023/01/23 00:36:28;;;;;;;0.70;0.70;;;;;;;143.37;100.00;122055.72;29373;243;63009;-56
2023/01/23 00:37:02;;;;;;;0.68;0.68;;;;;;;143.34;100.00;122052.44;29373;234;63004;-55
2023/01/23 00:37:34;;;;;;;0.62;0.62;;;;;;;143.35;100.00;122054.09;29373;239;63009;-55
2023/01/23 00:38:05;;;;;;;0.70;0.70;;;;;;;143.34;100.00;122054.91;29373;205;63004;-56
2023/01/23 00:38:39;;;;;;;0.60;0.60;;;;;;;143.33;100.00;122056.59;29373;202;63009;-56
2023/01/23 00:39:20;;;;;;;0.60;0.60;;;;;;;143.33;100.00;122060.72;29373;225;63004;-64
2023/01/23 00:39:52;;;;;;;0.70;0.70;;;;;;;143.33;100.00;122050.78;29373;291;63009;-65
2023/01/23 00:40:23;;;;;;;0.70;0.70;;;;;;;143.34;100.00;122062.34;29371;257;64009;-55
2023/01/23 00:40:55;;;;;;;0.68;0.68;;;;;;;143.35;100.00;122054.09;29373;281;63009;-56
2023/01/23 00:41:26;;;;;;;0.70;0.70;;;;;;;143.37;100.00;122055.72;29373;209;63005;-65
2023/01/23 00:42:00;;;;;;;0.60;0.60;;;;;;;143.37;100.00;122052.41;29373;204;63009;-56
2023/01/23 00:42:31;;;;;;;0.60;0.60;;;;;;;143.38;100.00;122060.66;29373;202;63005;-56
2023/01/23 00:43:02;;;;;;;0.60;0.60;;;;;;;143.37;100.00;122055.72;29373;214;63009;-55
2023/01/23 00:43:33;;;;;;;0.60;0.60;;;;;;;143.37;100.00;122049.94;29373;213;63005;-56
2023/01/23 00:44:05;;;;;;;0.60;0.60;;;;;;;143.37;100.00;122049.12;29371;231;64013;-57
2023/01/23 00:44:37;;;;;;;0.60;0.60;;;;;;;143.36;100.00;122061.50;29373;199;63004;-56
2023/01/23 00:45:09;;;;;;;0.60;0.60;;;;;;;143.35;100.00;122053.25;29373;237;63009;-64
2023/01/23 00:45:40;;;;;;;0.70;0.70;;;;;;;143.34;100.00;122052.44;29373;202;63004;-56
2023/01/23 00:46:11;;;;;;;0.60;0.60;;;;;;;143.33;100.00;122050.78;29373;239;63009;-56
2023/01/23 00:46:42;;;;;;;0.60;0.60;;;;;;;143.33;100.00;122050.78;29373;206;63004;-55
2023/01/23 00:47:14;;;;;;;0.60;0.60;;;;;;;143.32;100.00;122052.44;29373;213;63009;-56
2023/01/23 00:47:45;;;;;;;0.60;0.60;;;;;;;143.32;100.00;122055.75;29371;243;64009;-56
2023/01/23 00:49:23;;;;;;;0.64;0.64;;;;;;;-1.43;100.00;97984.88;88178;196;64005;-64
2023/01/23 00:49:56;;;;;;;0.70;0.70;;;;;;;-1.43;100.00;97987.53;29394;249;64009;-56
2023/01/23 00:50:27;;;;;;;0.70;0.70;;;;;;;-1.41;100.00;97988.16;29373;213;63004;-64
2023/01/23 00:50:58;;;;;;;0.60;0.60;;;;;;;-1.38;100.00;97992.25;29373;226;63008;-64
2023/01/23 00:51:30;;;;;;;0.60;0.60;;;;;;;-1.36;100.00;97987.56;29372;271;64004;-65
2023/01/23 00:52:01;;;;;;;0.60;0.60;;;;;;;-1.35;100.00;97991.88;29373;291;63008;-64
2023/01/23 00:52:34;;;;;;;0.60;0.60;;;;;;;-1.35;100.00;97991.88;29373;214;63014;-65
2023/01/23 00:53:05;;;;;;;1.00;1.00;;;;;;;-1.36;100.00;97985.72;29373;199;63009;-64
2023/01/23 00:53:39;;;;;;;0.60;0.60;;;;;;;-1.38;100.00;97986.94;29373;205;63005;-65
2023/01/23 00:54:11;;;;;;;0.70;0.70;;;;;;;-1.41;100.00;97988.16;29373;271;63009;-64
2023/01/23 00:54:42;;;;;;;0.70;0.70;;;;;;;-1.44;100.00;97988.53;29373;234;63005;-64
2023/01/23 00:55:14;;;;;;;0.60;0.60;;;;;;;-1.45;100.00;97986.91;29371;215;64013;-63
2023/01/23 00:55:46;;;;;;;0.70;0.70;;;;;;;-1.43;100.00;97989.37;29373;199;63004;-64
2023/01/23 00:56:17;;;;;;;0.70;0.70;;;;;;;-1.44;100.00;97993.88;29373;250;63009;-65
2023/01/23 00:56:48;;;;;;;0.70;0.70;;;;;;;-1.44;100.00;97993.88;29373;197;63004;-64
2023/01/23 00:57:20;;;;;;;0.70;0.70;;;;;;;-1.46;100.00;97984.41;29373;215;63009;-65
2023/01/23 00:57:51;;;;;;;0.70;0.70;;;;;;;-1.46;100.00;97987.91;29372;202;63004;-66
2023/01/23 00:58:24;;;;;;;0.60;0.60;;;;;;;-1.45;100.00;97989.56;29373;209;63008;-65
2023/01/23 00:58:55;;;;;;;0.70;0.70;;;;;;;-1.45;100.00;97980.75;29373;246;63011;-56
2023/01/23 00:59:26;;;;;;;0.70;0.70;;;;;;;-1.46;100.00;97985.25;29373;199;63009;-63
2023/01/23 00:59:57;;;;;;;0.60;0.60;;;;;;;-1.46;100.00;97990.56;29373;256;63005;-64
2023/01/23 01:00:29;;;;;;;0.70;0.70;;;;;;;-1.45;100.00;97986.91;29371;223;64013;-64
2023/01/23 01:01:03;;;;;;;0.70;0.70;;;;;;;-1.46;100.00;97985.25;29373;298;63005;-65
2023/01/23 01:01:35;;;;;;;0.60;0.60;;;;;;;-1.44;100.00;97988.53;29371;260;64013;-55
2023/01/23 01:02:06;;;;;;;0.60;0.60;;;;;;;-1.44;100.00;97985.88;29373;266;63005;-55
2023/01/23 01:02:41;;;;;;;0.60;0.60;;;;;;;-1.44;100.00;97983.22;29373;227;63009;-64
2023/01/23 01:03:16;;;;;;;0.62;0.62;;;;;;;-1.43;100.00;97984.88;29373;215;63004;-56
2023/01/23 01:04:56;;;;;;;0.64;0.64;;;;;;;-1.44;100.00;97977.91;88174;202;64005;-63
2023/01/23 01:05:28;;;;;;;0.70;0.70;;;;;;;-1.43;100.00;97994.69;29394;212;64008;-66
2023/01/23 01:06:00;;;;;;;0.70;0.70;;;;;;;-1.44;100.00;97985.88;29373;203;63005;-56
2023/01/23 01:06:31;;;;;;;0.68;0.68;;;;;;;-1.44;100.00;97983.22;29373;228;63009;-65
2023/01/23 01:07:06;;;;;;;0.60;0.60;;;;;;;-1.42;100.00;97985.69;29371;197;64009;-63
2023/01/23 01:07:37;;;;;;;0.70;0.70;;;;;;;-1.43;100.00;97984.03;29373;204;63009;-66
2023/01/23 01:08:08;;;;;;;0.70;0.70;;;;;;;-1.41;100.00;97988.16;29373;242;63005;-65
2023/01/23 01:08:42;;;;;;;0.70;0.70;;;;;;;-1.40;100.00;97989.81;29373;241;63009;-65
2023/01/23 01:09:15;;;;;;;0.70;0.70;;;;;;;-1.40;100.00;97995.13;29373;228;63005;-55
2023/01/23 01:09:46;;;;;;;0.62;0.62;;;;;;;-1.40;100.00;97995.13;29371;288;64013;-65
2023/01/23 01:10:17;;;;;;;0.68;0.68;;;;;;;-1.41;100.00;97998.81;29373;214;63004;-64
2023/01/23 01:10:49;;;;;;;0.60;0.60;;;;;;;-1.43;100.00;97995.50;29373;242;63027;-65
2023/01/23 01:11:21;;;;;;;0.60;0.60;;;;;;;-1.41;100.00;97998.81;29371;228;64009;-65
2023/01/23 01:11:52;;;;;;;0.70;0.70;;;;;;;-1.41;100.00;97996.16;29373;255;63008;-64
2023/01/23 01:12:23;;;;;;;0.60;0.60;;;;;;;-1.40;100.00;97994.31;29373;218;63004;-64
2023/01/23 01:12:59;;;;;;;0.60;0.60;;;;;;;-1.40;100.00;97995.13;29373;196;63008;-55
2023/01/23 01:13:31;;;;;;;0.70;0.70;;;;;;;-1.39;100.00;97999.41;29373;280;63005;-66
2023/01/23 01:14:06;;;;;;;0.60;0.60;;;;;;;-1.38;100.00;98002.91;29373;202;63009;-55
2023/01/23 01:14:39;;;;;;;2.65;2.55;;;;;;;-1.39;100.00;97991.44;29373;285;63005;-65
2023/01/23 01:15:13;;;;;;;0.60;0.60;;;;;;;-1.39;100.00;98002.09;29373;215;63009;-65
2023/01/23 01:15:45;;;;;;;0.70;0.70;;;;;;;-1.38;100.00;98001.06;29373;202;63005;-64
2023/01/23 01:16:17;;;;;;;0.65;0.65;;;;;;;-1.39;100.00;98002.09;29373;244;63023;-57
2023/01/23 01:16:50;;;;;;;0.70;0.70;;;;;;;-1.40;100.00;98000.47;29371;211;64009;-64
2023/01/23 01:17:21;;;;;;;0.60;0.60;;;;;;;-1.41;100.00;98012.13;29373;243;63026;-63
2023/01/23 01:17:53;;;;;;;1.12;1.12;;;;;;;-1.42;100.00;98007.00;29373;243;63004;-63
2023/01/23 01:18:28;;;;;;;0.65;0.65;;;;;;;-1.43;100.00;98000.84;29373;257;63009;-56
2023/01/23 01:20:09;;;;;;;0.67;0.67;;;;;;;-1.41;100.00;98006.81;88174;202;64005;-56
2023/01/23 01:20:42;;;;;;;0.70;0.70;;;;;;;-1.43;100.00;98008.81;29394;221;64009;-64
2023/01/23 01:21:16;;;;;;;0.60;0.60;;;;;;;-1.44;100.00;98007.19;29373;251;63005;-65
2023/01/23 01:21:47;;;;;;;0.70;0.70;;;;;;;-1.44;100.00;98011.69;29373;216;63009;-64
2023/01/23 01:22:19;;;;;;;0.70;0.70;;;;;;;-1.46;100.00;98011.87;29371;220;64009;-56
2023/01/23 01:22:51;;;;;;;0.60;0.60;;;;;;;-1.45;100.00;98013.50;29373;262;63005;-64
2023/01/23 01:23:22;;;;;;;0.70;0.70;;;;;;;-1.44;100.00;98009.84;29373;227;63005;-63
2023/01/23 01:23:53;;;;;;;0.65;0.65;;;;;;;-1.45;100.00;98016.19;29371;224;64013;-64
2023/01/23 01:24:25;;;;;;;3.12;2.92;;;;;;;-1.46;100.00;98008.38;29371;196;64009;-64
2023/01/23 01:24:56;;;;;;;0.60;0.60;;;;;;;-1.47;100.00;98020.88;29373;223;63027;-65
2023/01/23 01:25:29;;;;;;;0.60;0.60;;;;;;;-1.49;100.00;98017.56;29373;209;63004;-65
2023/01/23 01:26:01;;;;;;;0.73;0.73;;;;;;;-1.49;100.00;98017.56;29373;258;63023;-67
2023/01/23 01:26:32;;;;;;;0.70;0.70;;;;;;;-1.49;100.00;98020.22;29373;215;63004;-65
2023/01/23 01:27:04;;;;;;;0.70;0.70;;;;;;;-1.48;100.00;98013.06;29373;226;63008;-66
2023/01/23 01:27:35;;;;;;;0.70;0.70;;;;;;;-1.48;100.00;98013.88;29373;196;63004;-56
2023/01/23 01:28:07;;;;;;;0.60;0.60;;;;;;;-1.45;100.00;98015.34;29373;210;63017;-65
2023/01/23 01:28:40;;;;;;;1.95;1.30;;;;;;;-1.46;100.00;98011.87;29373;257;63005;-65
2023/01/23 01:29:12;;;;;;;0.60;0.60;;;;;;;-1.47;100.00;98020.88;29371;300;64014;-57
2023/01/23 01:29:45;;;;;;;0.62;0.62;;;;;;;-1.46;100.00;98027.84;29373;220;63005;-64
2023/01/23 01:30:17;;;;;;;0.60;0.60;;;;;;;-1.44;100.00;98017.00;29373;233;63015;-65
2023/01/23 01:30:49;;;;;;;0.62;0.62;;;;;;;-1.43;100.00;98026.63;29371;231;64009;-66
2023/01/23 01:31:23;;;;;;;0.65;0.65;;;;;;;-1.43;100.00;98016.81;29373;220;63009;-66
2023/01/23 01:31:54;;;;;;;0.70;0.70;;;;;;;-1.43;100.00;98022.13;29371;235;64009;-56
2023/01/23 01:32:27;;;;;;;0.62;0.62;;;;;;;-1.41;100.00;98022.78;29373;220;63009;-65
2023/01/23 01:32:58;;;;;;;0.60;0.60;;;;;;;-1.40;100.00;98032.41;29373;214;63004;-66
2023/01/23 01:33:31;;;;;;;0.60;0.60;;;;;;;-1.42;100.00;98023.78;29371;254;64013;-64
2023/01/23 01:35:10;;;;;;;0.63;0.63;;;;;;;-1.42;100.00;98023.78;88178;221;64004;-63
2023/01/23 01:35:42;;;;;;;0.65;0.65;;;;;;;-1.44;100.00;98022.31;29394;223;64009;-64
2023/01/23 01:36:17;;;;;;;0.70;0.70;;;;;;;-1.44;100.00;98025.00;29373;223;63005;-64
2023/01/23 01:36:48;;;;;;;0.70;0.70;;;;;;;-1.47;100.00;98026.19;29371;284;64013;-65
2023/01/23 01:37:21;;;;;;;0.62;0.62;;;;;;;-1.49;100.00;98022.88;29373;219;63005;-63
2023/01/23 01:37:52;;;;;;;0.60;0.60;;;;;;;-1.48;100.00;98023.72;29373;222;63026;-65
2023/01/23 01:38:24;;;;;;;0.60;0.60;;;;;;;-1.49;100.00;98022.88;29373;214;63005;-65
2023/01/23 01:38:55;;;;;;;0.70;0.70;;;;;;;-1.48;100.00;98029.03;29373;216;63009;-64
2023/01/23 01:39:26;;;;;;;0.60;0.60;;;;;;;-1.48;100.00;98021.88;29373;197;63004;-66
2023/01/23 01:39:57;;;;;;;0.70;0.70;;;;;;;-1.46;100.00;98022.50;29373;209;63009;-64
2023/01/23 01:40:33;;;;;;;0.60;0.60;;;;;;;-1.44;100.00;98025.00;29373;202;63004;-55
2023/01/23 01:41:05;;;;;;;0.60;0.60;;;;;;;-1.46;100.00;98027.84;29373;256;63009;-55
2023/01/23 01:41:37;;;;;;;0.60;0.60;;;;;;;-1.48;100.00;98029.84;29373;247;63004;-56
2023/01/23 01:42:10;;;;;;;0.70;0.70;;;;;;;-1.49;100.00;98022.88;29371;236;64014;-64
2023/01/23 01:42:46;;;;;;;0.60;0.60;;;;;;;-1.50;100.00;98026.56;29373;222;63005;-64
2023/01/23 01:43:24;;;;;;;0.60;0.60;;;;;;;-1.50;100.00;98031.06;29373;230;63009;-64
2023/01/23 01:43:56;;;;;;;0.70;0.70;;;;;;;-1.50;100.00;98026.56;29373;285;63005;-65
2023/01/23 01:44:56;;;;;;;0.70;0.70;;;;;;;-1.50;100.00;98031.88;29373;250;63026;-65
2023/01/23 01:46:04;;;;;;;0.70;0.70;;;;;;;-1.49;100.00;98028.22;29373;242;63005;-64
2023/01/23 01:46:35;;;;;;;0.75;0.75;;;;;;;-1.48;100.00;98027.19;29373;202;63004;-56
2023/01/23 01:47:08;;;;;;;0.70;0.70;;;;;;;-1.48;100.00;98029.03;29373;252;63009;-64
2023/01/23 01:47:40;;;;;;;0.60;0.60;;;;;;;-1.50;100.00;98023.91;29371;219;64009;-64
2023/01/23 01:48:15;;;;;;;1.02;0.90;;;;;;;-1.47;100.00;98028.84;29373;257;63009;-55
2023/01/23 01:49:13;;;;;;;0.65;0.65;;;;;;;-1.46;100.00;98027.00;29373;239;63015;-56
2023/01/23 01:49:51;;;;;;;0.70;0.70;;;;;;;-1.45;100.00;98018.00;29373;201;63009;-64
2023/01/23 01:50:26;;;;;;;0.70;0.70;;;;;;;-1.46;100.00;98027.00;29373;223;63015;-65
2023/01/23 01:50:59;;;;;;;0.60;0.60;;;;;;;-1.46;100.00;98027.00;29373;264;63009;-64
2023/01/23 01:52:16;;;;;;;0.70;0.70;;;;;;;-1.46;100.00;98027.84;29371;254;64009;-64
2023/01/23 01:52:47;;;;;;;0.70;0.70;;;;;;;-1.47;100.00;98025.38;29371;205;64013;-64
2023/01/23 01:53:22;;;;;;;1.23;1.23;;;;;;;-1.49;100.00;98030.88;29373;217;63005;-65
2023/01/23 01:54:04;;;;;;;0.60;0.60;;;;;;;-1.51;100.00;98024.91;29373;203;63009;-63
2023/01/23 01:55:03;;;;;;;0.70;0.70;;;;;;;-1.53;100.00;98029.59;29373;243;63004;-56
2023/01/23 01:55:37;;;;;;;0.70;0.70;;;;;;;-1.53;100.00;98031.44;29373;251;63009;-57
2023/01/23 01:56:12;;;;;;;0.65;0.65;;;;;;;-1.52;100.00;98033.91;29373;210;63004;-65
2023/01/23 01:57:00;;;;;;;0.70;0.70;;;;;;;-1.51;100.00;98035.56;29373;252;63008;-64
2023/01/23 01:57:39;;;;;;;0.70;0.70;;;;;;;-1.50;100.00;98039.03;29371;213;64009;-57
2023/01/23 01:58:12;;;;;;;0.70;0.70;;;;;;;-1.50;100.00;98039.88;29371;274;64014;-56
2023/01/23 01:58:47;;;;;;;0.70;0.70;;;;;;;-1.51;100.00;98032.91;29373;209;63009;-63
2023/01/23 01:59:22;;;;;;;0.70;0.70;;;;;;;-1.52;100.00;98033.91;29373;210;63009;-55
2023/01/23 02:00:10;;;;;;;0.65;0.65;;;;;;;-1.51;100.00;98034.72;29373;200;63015;-56
2023/01/23 02:00:42;;;;;;;0.80;0.80;;;;;;;-1.51;100.00;98029.41;29373;229;63009;-64
2023/01/23 02:01:14;;;;;;;0.60;0.60;;;;;;;-1.51;100.00;98029.41;29373;225;63004;-55
2023/01/23 02:01:52;;;;;;;0.70;0.70;;;;;;;-1.50;100.00;98026.56;29373;307;63009;-56
2023/01/23 02:02:28;;;;;;;0.65;0.65;;;;;;;-1.49;100.00;98028.22;29373;220;63004;-64
2023/01/23 02:03:02;;;;;;;0.70;0.70;;;;;;;-1.44;100.00;98031.12;29371;200;64013;-64
2023/01/23 02:03:34;;;;;;;0.70;0.70;;;;;;;-1.45;100.00;98034.81;29373;243;63004;-56
2023/01/23 02:04:09;;;;;;;0.70;0.70;;;;;;;-1.45;100.00;98028.66;29373;247;63008;-62
2023/01/23 02:04:48;;;;;;;0.70;0.70;;;;;;;-1.47;100.00;98028.84;29371;312;64008;-56
2023/01/23 02:06:28;;;;;;;0.66;0.66;;;;;;;-1.47;100.00;98031.50;88173;207;64004;-66
2023/01/23 02:07:04;;;;;;;0.70;0.70;;;;;;;-1.47;100.00;98036.00;29394;231;64009;-66
2023/01/23 02:07:53;;;;;;;0.70;0.70;;;;;;;-1.49;100.00;98033.53;29373;276;63005;-64
2023/01/23 02:09:06;;;;;;;0.70;0.70;;;;;;;-1.43;100.00;98034.63;29373;228;63009;-63
2023/01/23 02:09:40;;;;;;;0.70;0.70;;;;;;;-1.43;100.00;98034.63;29371;202;64013;-63
2023/01/23 02:10:15;;;;;;;0.70;0.70;;;;;;;-1.46;100.00;98035.81;29373;209;63004;-65
2023/01/23 02:10:51;;;;;;;0.60;0.60;;;;;;;-1.48;100.00;98040.50;29373;220;63009;-66
2023/01/23 02:11:23;;;;;;;0.62;0.62;;;;;;;-1.49;100.00;98038.03;29373;232;63004;-63
2023/01/23 02:11:55;;;;;;;0.62;0.62;;;;;;;-1.50;100.00;98042.53;29373;222;63009;-64
2023/01/23 02:12:27;;;;;;;0.68;0.68;;;;;;;-1.49;100.00;98038.84;29373;281;63004;-64
2023/01/23 02:13:38;;;;;;;0.68;0.68;;;;;;;-1.48;100.00;98045.84;29373;257;63008;-64
2023/01/23 02:14:10;;;;;;;0.80;0.80;;;;;;;-1.47;100.00;98041.34;29373;202;63009;-63
2023/01/23 02:14:42;;;;;;;0.60;0.60;;;;;;;-1.46;100.00;98042.97;29371;240;64009;-57
2023/01/23 02:15:15;;;;;;;0.62;0.62;;;;;;;-1.44;100.00;98046.28;29373;211;63009;-65
2023/01/23 02:15:50;;;;;;;0.68;0.68;;;;;;;-1.44;100.00;98041.78;29373;198;63005;-65
2023/01/23 02:16:30;;;;;;;0.70;0.70;;;;;;;-1.44;100.00;98035.63;29373;243;63009;-64
2023/01/23 02:17:02;;;;;;;0.70;0.70;;;;;;;-1.45;100.00;98037.47;29373;204;63005;-56
2023/01/23 02:17:35;;;;;;;0.70;0.70;;;;;;;-1.47;100.00;98039.50;29373;225;63009;-63
2023/01/23 02:18:07;;;;;;;0.70;0.70;;;;;;;-1.46;100.00;98046.47;29373;267;63004;-64
2023/01/23 02:18:46;;;;;;;0.68;0.68;;;;;;;-1.47;100.00;98036.84;29373;246;63009;-65
2023/01/23 02:19:40;;;;;;;0.70;0.70;;;;;;;-1.49;100.00;98038.84;29373;240;63004;-63
2023/01/23 02:20:31;;;;;;;0.60;0.60;;;;;;;-1.51;100.00;98035.56;29371;216;64008;-65
2023/01/23 02:21:07;;;;;;;0.70;0.70;;;;;;;-1.51;100.00;98034.72;29373;237;63009;-65
2023/01/23 02:21:40;;;;;;;0.60;0.60;;;;;;;-1.52;100.00;98033.91;29373;211;63005;-64
2023/01/23 02:22:54;;;;;;;0.60;0.60;;;;;;;-1.53;100.00;98037.59;29373;233;63009;-64
2023/01/23 02:24:02;;;;;;;0.70;0.70;;;;;;;-1.51;100.00;98040.06;29373;232;63005;-65
2023/01/23 02:24:45;;;;;;;0.70;0.70;;;;;;;-1.50;100.00;98031.06;29373;282;63009;-56
2023/01/23 02:26:02;;;;;;;0.70;0.70;;;;;;;-1.53;100.00;98042.91;29371;221;64009;-56
2023/01/23 02:26:45;;;;;;;0.70;0.70;;;;;;;-1.54;100.00;98041.25;29373;218;63009;-65
2023/01/23 02:27:18;;;;;;;0.70;0.70;;;;;;;-1.55;100.00;98036.13;29372;202;64009;-65
2023/01/23 02:27:50;;;;;;;0.68;0.68;;;;;;;-1.54;100.00;98043.09;29373;235;63008;-65
2023/01/23 02:28:22;;;;;;;0.60;0.60;;;;;;;-1.54;100.00;98040.44;29373;223;63012;-55
2023/01/23 02:28:54;;;;;;;0.70;0.70;;;;;;;-1.55;100.00;98044.94;29373;239;63009;-56
2023/01/23 02:29:26;;;;;;;0.70;0.70;;;;;;;-1.52;100.00;98036.56;29373;280;63005;-55
2023/01/23 02:29:58;;;;;;;0.60;0.60;;;;;;;-1.52;100.00;98038.41;29373;204;63009;-56
2023/01/23 02:30:31;;;;;;;0.70;0.70;;;;;;;-1.54;100.00;98035.94;29373;231;63005;-55
2023/01/23 02:31:02;;;;;;;0.70;0.70;;;;;;;-1.54;100.00;98037.78;29373;259;63009;-56
2023/01/23 02:31:34;;;;;;;0.70;0.70;;;;;;;-1.56;100.00;98040.63;29373;224;63005;-57
2023/01/23 02:32:05;;;;;;;0.60;0.60;;;;;;;-1.56;100.00;98029.16;29373;268;63009;-56
2023/01/23 02:32:37;;;;;;;0.70;0.70;;;;;;;-1.56;100.00;98032.63;29371;198;64009;-56
2023/01/23 02:33:50;;;;;;;0.70;0.70;;;;;;;-1.54;100.00;98033.28;29373;235;63009;-56
2023/01/23 02:34:24;;;;;;;0.70;0.70;;;;;;;-1.54;100.00;98024.47;29371;277;64009;-56
2023/01/23 02:35:01;;;;;;;0.70;0.70;;;;;;;-1.54;100.00;98019.97;29373;241;63009;-56
2023/01/23 02:35:33;;;;;;;0.70;0.70;;;;;;;-1.54;100.00;98025.28;29373;285;63004;-55
2023/01/23 02:36:10;;;;;;;0.60;0.60;;;;;;;-1.54;100.00;98027.94;29373;203;63009;-56
2023/01/23 02:36:46;;;;;;;0.60;0.60;;;;;;;-1.54;100.00;98030.59;29373;222;63010;-65
2023/01/23 02:37:23;;;;;;;0.70;0.70;;;;;;;-1.53;100.00;98020.78;29373;204;63009;-56
2023/01/23 02:37:59;;;;;;;0.60;0.60;;;;;;;-1.52;100.00;98023.25;29373;232;63005;-56
2023/01/23 02:38:38;;;;;;;0.60;0.60;;;;;;;-1.52;100.00;98028.59;29373;239;63009;-56
2023/01/23 02:39:20;;;;;;;0.60;0.60;;;;;;;-1.51;100.00;98024.91;29373;228;63005;-55
2023/01/23 02:40:07;;;;;;;0.70;0.70;;;;;;;-1.51;100.00;98027.56;29371;225;64013;-55
2023/01/23 02:40:41;;;;;;;0.70;0.70;;;;;;;-1.51;100.00;98026.75;29373;196;63004;-55
2023/01/23 02:41:15;;;;;;;0.60;0.60;;;;;;;-1.52;100.00;98028.59;29373;206;63009;-56
2023/01/23 02:41:50;;;;;;;0.70;0.70;;;;;;;-1.52;100.00;98028.59;29373;206;63004;-56
2023/01/23 02:42:22;;;;;;;0.70;0.70;;;;;;;-1.52;100.00;98019.78;29373;237;63009;-56
2023/01/23 02:42:54;;;;;;;0.70;0.70;;;;;;;-1.54;100.00;98025.28;29373;197;63004;-57
2023/01/23 02:43:33;;;;;;;0.60;0.60;;;;;;;-1.54;100.00;98019.97;29373;217;63008;-56
2023/01/23 02:44:30;;;;;;;0.70;0.70;;;;;;;-1.53;100.00;98029.59;29373;197;63005;-56
2023/01/23 02:45:03;;;;;;;0.70;0.70;;;;;;;-1.54;100.00;98022.62;29371;226;64014;-56
2023/01/23 02:45:36;;;;;;;0.70;0.70;;;;;;;-1.54;100.00;98025.28;29373;269;63005;-63
2023/01/23 02:46:10;;;;;;;0.70;0.70;;;;;;;-1.55;100.00;98028.97;29373;218;63009;-56
2023/01/23 02:46:41;;;;;;;0.70;0.70;;;;;;;-1.54;100.00;98029.78;29373;271;63005;-56
2023/01/23 02:47:13;;;;;;;0.70;0.70;;;;;;;-1.54;100.00;98027.94;29373;381;63009;-56
2023/01/23 02:47:44;;;;;;;0.70;0.70;;;;;;;-1.54;100.00;98030.59;29373;202;63004;-56
2023/01/23 02:48:16;;;;;;;0.70;0.70;;;;;;;-1.54;100.00;98019.97;29372;245;63009;-56
2023/01/23 02:48:48;;;;;;;0.65;0.65;;;;;;;-1.54;100.00;98021.81;29373;199;63004;-56
2023/01/23 02:49:21;;;;;;;0.60;0.60;;;;;;;-1.55;100.00;98023.62;29373;232;63009;-56
2023/01/23 02:49:52;;;;;;;0.75;0.75;;;;;;;-1.54;100.00;98025.28;29373;226;63004;-56
2023/01/23 02:50:24;;;;;;;0.65;0.65;;;;;;;-1.56;100.00;98027.31;29371;283;64013;-55
2023/01/23 02:50:55;;;;;;;0.70;0.70;;;;;;;-1.56;100.00;98027.31;29373;204;63015;-56
2023/01/23 02:51:26;;;;;;;0.70;0.70;;;;;;;-1.55;100.00;98022.81;29373;198;63009;-56
2023/01/23 02:51:58;;;;;;;0.70;0.70;;;;;;;-1.55;100.00;98015.66;29373;270;63005;-57
2023/01/23 02:52:30;;;;;;;0.70;0.70;;;;;;;-1.55;100.00;98023.62;29373;217;63009;-56
2023/01/23 02:53:04;;;;;;;0.70;0.70;;;;;;;-1.55;100.00;98028.13;29373;265;63005;-55